createdAt,value
2023-03-22T00:00:43.174Z,12.10
2023-03-22T00:03:46.013Z,11.60
2023-03-22T00:06:47.674Z,12.30
2023-03-22T00:09:49.226Z,12.00
2023-03-22T00:12:58.144Z,11.80
2023-03-22T00:15:59.842Z,11.90
2023-03-22T00:19:01.485Z,11.60
2023-03-22T00:22:06.092Z,11.80
2023-03-22T00:25:08.019Z,13.10
2023-03-22T00:28:09.685Z,11.90
2023-03-22T00:31:11.697Z,11.80
2023-03-22T00:34:13.262Z,12.10
2023-03-22T00:37:16.361Z,11.60
2023-03-22T00:40:18.471Z,11.80
2023-03-22T00:43:20.271Z,12.00
2023-03-22T00:46:22.342Z,11.70
2023-03-22T00:49:25.425Z,11.60
2023-03-22T00:52:28.774Z,11.80
2023-03-22T00:55:31.096Z,11.90
2023-03-22T00:58:35.558Z,11.50
2023-03-22T01:01:37.178Z,11.80
2023-03-22T01:04:39.979Z,11.20
2023-03-22T01:07:42.969Z,11.50
2023-03-22T01:10:44.792Z,11.20
2023-03-22T01:13:47.797Z,11.90
2023-03-22T01:16:49.359Z,11.70
2023-03-22T01:19:50.987Z,11.80
2023-03-22T01:22:52.708Z,11.40
2023-03-22T01:25:54.261Z,11.30
2023-03-22T01:28:55.880Z,11.60
2023-03-22T01:31:57.570Z,11.50
2023-03-22T01:34:59.177Z,11.60
2023-03-22T01:38:01.347Z,11.50
2023-03-22T01:41:03.219Z,11.50
2023-03-22T01:44:17.278Z,11.30
2023-03-22T01:47:18.823Z,11.50
2023-03-22T01:50:21.497Z,11.80
2023-03-22T01:53:26.117Z,11.70
2023-03-22T01:56:31.131Z,11.10
2023-03-22T01:59:32.800Z,11.50
2023-03-22T02:02:34.793Z,11.50
2023-03-22T02:05:37.029Z,11.40
2023-03-22T02:08:40.468Z,11.00
2023-03-22T02:11:46.143Z,11.10
2023-03-22T02:15:09.200Z,11.30
2023-03-22T02:18:49.990Z,10.80
2023-03-22T02:22:03.824Z,11.40
2023-03-22T02:25:42.758Z,10.70
2023-03-22T02:28:56.543Z,11.40
2023-03-22T02:32:22.151Z,10.90
2023-03-22T02:35:27.660Z,11.10
2023-03-22T02:38:57.849Z,11.00
2023-03-22T02:42:05.163Z,11.10
2023-03-22T02:45:27.667Z,10.60
2023-03-22T02:48:47.976Z,10.60
2023-03-22T02:51:59.915Z,10.60
2023-03-22T02:55:01.657Z,10.60
2023-03-22T02:58:09.420Z,10.60
2023-03-22T03:01:19.869Z,10.60
2023-03-22T03:04:30.045Z,10.50
2023-03-22T03:07:31.740Z,10.40
2023-03-22T03:10:34.365Z,10.60
2023-03-22T03:13:35.935Z,10.40
2023-03-22T03:16:37.775Z,10.20
2023-03-22T03:19:49.725Z,10.40
2023-03-22T03:23:32.741Z,10.20
2023-03-22T03:27:04.119Z,10.30
2023-03-22T03:30:14.634Z,10.10
2023-03-22T03:33:20.256Z,10.50
2023-03-22T03:36:23.380Z,10.60
2023-03-22T03:39:28.638Z,10.30
2023-03-22T03:42:31.575Z,10.10
2023-03-22T03:45:35.942Z,10.30
2023-03-22T03:48:39.583Z,10.20
2023-03-22T03:51:53.176Z,10.10
2023-03-22T03:54:55.149Z,10.50
2023-03-22T03:57:56.707Z,10.50
2023-03-22T04:00:58.561Z,10.30
2023-03-22T04:04:00.229Z,10.10
2023-03-22T04:07:04.294Z,10.20
2023-03-22T04:10:06.598Z,10.20
2023-03-22T04:13:08.217Z,10.10
2023-03-22T04:16:10.058Z,10.40
2023-03-22T04:19:11.827Z,10.40
2023-03-22T04:22:14.722Z,10.00
2023-03-22T04:25:18.645Z,9.80
2023-03-22T04:28:20.412Z,10.10
2023-03-22T04:31:21.998Z,10.20
2023-03-22T04:34:23.568Z,10.30
2023-03-22T04:37:26.983Z,10.00
2023-03-22T04:40:35.056Z,10.10
2023-03-22T04:43:39.103Z,10.00
2023-03-22T04:46:40.766Z,10.20
2023-03-22T04:49:42.417Z,10.00
2023-03-22T04:52:43.965Z,9.80
2023-03-22T04:55:45.512Z,10.20
2023-03-22T04:58:47.931Z,10.00
2023-03-22T05:01:51.378Z,9.70
2023-03-22T05:04:53.031Z,9.90
2023-03-22T05:07:54.590Z,9.90
2023-03-22T05:10:57.959Z,9.90
2023-03-22T05:13:59.633Z,10.10
2023-03-22T05:17:01.269Z,10.30
2023-03-22T05:20:09.233Z,10.30
2023-03-22T05:23:10.911Z,10.30
2023-03-22T05:26:15.598Z,10.00
2023-03-22T05:29:17.171Z,10.40
2023-03-22T05:32:18.753Z,10.60
2023-03-22T05:35:20.480Z,10.10
2023-03-22T05:38:25.264Z,10.20
2023-03-22T05:41:26.862Z,10.40
2023-03-22T05:44:28.595Z,10.30
2023-03-22T05:47:30.257Z,10.70
2023-03-22T05:50:32.437Z,10.30
2023-03-22T05:53:34.503Z,12.10
2023-03-22T05:56:36.210Z,10.80
2023-03-22T05:59:37.741Z,10.40
2023-03-22T06:02:40.420Z,10.50
2023-03-22T06:05:42.067Z,10.60
2023-03-22T06:08:44.018Z,10.40
2023-03-22T06:11:45.601Z,10.70
2023-03-22T06:14:47.135Z,12.30
2023-03-22T06:17:48.745Z,10.70
2023-03-22T06:20:50.448Z,10.50
2023-03-22T06:23:52.074Z,11.10
2023-03-22T06:26:53.807Z,11.30
2023-03-22T06:29:55.390Z,11.10
2023-03-22T06:33:00.415Z,11.00
2023-03-22T06:36:02.985Z,11.10
2023-03-22T06:39:05.163Z,11.00
2023-03-22T06:42:06.809Z,11.10
2023-03-22T06:45:08.833Z,11.10
2023-03-22T06:48:10.432Z,11.50
2023-03-22T06:51:12.053Z,11.20
2023-03-22T06:54:14.741Z,11.30
2023-03-22T06:57:16.311Z,11.20
2023-03-22T07:00:18.341Z,11.30
2023-03-22T07:03:19.912Z,11.60
2023-03-22T07:06:21.450Z,11.10
2023-03-22T07:09:24.776Z,12.60
2023-03-22T07:12:26.334Z,11.00
2023-03-22T07:15:28.262Z,10.80
2023-03-22T07:18:30.544Z,10.80
2023-03-22T07:21:32.128Z,11.30
2023-03-22T07:24:33.701Z,13.00
2023-03-22T07:27:35.261Z,11.50
2023-03-22T07:30:37.598Z,11.60
2023-03-22T07:33:39.964Z,11.70
2023-03-22T07:36:41.575Z,11.80
2023-03-22T07:39:43.131Z,11.80
2023-03-22T07:42:44.886Z,12.00
2023-03-22T07:45:48.056Z,12.20
2023-03-22T07:48:49.735Z,12.60
2023-03-22T07:51:51.301Z,11.90
2023-03-22T07:54:52.883Z,12.70
2023-03-22T07:57:54.858Z,12.50
2023-03-22T08:00:56.591Z,12.70
2023-03-22T08:03:58.325Z,12.20
2023-03-22T08:06:59.950Z,12.20
2023-03-22T08:10:01.848Z,11.90
2023-03-22T08:13:03.698Z,12.20
2023-03-22T08:16:06.495Z,12.70
2023-03-22T08:19:08.056Z,12.30
2023-03-22T08:22:11.973Z,11.90
2023-03-22T08:25:14.106Z,13.60
2023-03-22T08:28:16.615Z,12.50
2023-03-22T08:31:18.614Z,12.90
2023-03-22T08:34:20.796Z,12.70
2023-03-22T08:37:22.351Z,12.60
2023-03-22T08:40:24.164Z,12.60
2023-03-22T08:43:25.767Z,12.40
2023-03-22T08:46:27.650Z,12.50
2023-03-22T08:49:29.308Z,12.50
2023-03-22T08:52:30.917Z,14.50
2023-03-22T08:55:35.335Z,12.80
2023-03-22T08:58:37.101Z,14.00
2023-03-22T09:01:38.805Z,12.20
2023-03-22T09:04:40.656Z,13.80
2023-03-22T09:07:42.247Z,12.40
2023-03-22T09:10:44.022Z,12.30
2023-03-22T09:13:45.873Z,12.40
2023-03-22T09:16:47.977Z,12.70
2023-03-22T09:19:55.603Z,12.90
2023-03-22T09:23:02.184Z,12.80
2023-03-22T09:26:09.242Z,13.00
2023-03-22T09:29:10.901Z,13.00
2023-03-22T09:32:12.548Z,13.20
2023-03-22T09:35:14.517Z,13.20
2023-03-22T09:38:16.428Z,13.70
2023-03-22T09:41:44.047Z,13.30
2023-03-22T09:44:46.514Z,13.40
2023-03-22T09:47:52.657Z,12.90
2023-03-22T09:50:55.160Z,13.30
2023-03-22T09:53:56.981Z,13.20
2023-03-22T09:57:08.329Z,13.50
2023-03-22T10:00:18.807Z,14.40
2023-03-22T10:03:49.957Z,13.20
2023-03-22T10:07:06.712Z,13.30
2023-03-22T10:10:17.928Z,13.40
2023-03-22T10:13:37.613Z,13.60
2023-03-22T10:16:39.941Z,13.60
2023-03-22T10:20:00.147Z,13.70
2023-03-22T10:23:05.589Z,13.60
2023-03-22T10:26:08.771Z,13.50
2023-03-22T10:29:23.542Z,13.50
2023-03-22T10:32:57.124Z,13.10
2023-03-22T10:36:01.172Z,13.60
2023-03-22T10:39:24.143Z,13.50
2023-03-22T10:42:28.739Z,13.80
2023-03-22T10:45:34.076Z,15.40
2023-03-22T10:48:45.004Z,13.80
2023-03-22T10:51:50.057Z,13.80
2023-03-22T10:54:51.921Z,13.40
2023-03-22T10:58:15.552Z,13.70
2023-03-22T11:01:29.511Z,13.50
2023-03-22T11:04:31.392Z,13.90
2023-03-22T11:07:46.792Z,14.60
2023-03-22T11:10:51.213Z,13.70
2023-03-22T11:14:01.766Z,15.20
2023-03-22T11:17:06.446Z,13.80
2023-03-22T11:20:18.883Z,13.60
2023-03-22T11:23:21.592Z,13.90
2023-03-22T11:26:30.558Z,14.90
2023-03-22T11:29:51.328Z,13.80
2023-03-22T11:33:00.298Z,13.80
2023-03-22T11:36:05.449Z,13.70
2023-03-22T11:39:08.065Z,13.50
2023-03-22T11:42:20.891Z,13.30
2023-03-22T11:45:32.214Z,13.80
2023-03-22T11:48:35.405Z,13.60
2023-03-22T11:51:39.591Z,13.50
2023-03-22T11:54:42.673Z,13.50
2023-03-22T11:57:44.241Z,13.70
2023-03-22T12:00:46.500Z,13.30
2023-03-22T12:03:54.681Z,13.20
2023-03-22T12:07:00.051Z,13.00
2023-03-22T12:10:13.009Z,13.60
2023-03-22T12:13:24.657Z,13.70
2023-03-22T12:16:32.418Z,13.40
2023-03-22T12:19:45.500Z,13.80
2023-03-22T12:22:53.802Z,13.50
2023-03-22T12:25:55.576Z,13.90
2023-03-22T12:29:03.600Z,14.00
2023-03-22T12:32:13.531Z,14.20
2023-03-22T12:35:21.772Z,14.00
2023-03-22T12:38:46.091Z,14.00
2023-03-22T12:41:50.411Z,14.20
2023-03-22T12:45:04.751Z,14.00
2023-03-22T12:48:18.875Z,14.00
2023-03-22T12:51:20.566Z,13.80
2023-03-22T12:54:25.298Z,13.60
2023-03-22T12:57:27.246Z,14.10
2023-03-22T13:00:33.143Z,14.60
2023-03-22T13:03:44.851Z,13.60
2023-03-22T13:06:47.626Z,13.70
2023-03-22T13:09:50.856Z,13.30
2023-03-22T13:13:23.282Z,13.60
2023-03-22T13:16:52.886Z,13.70
2023-03-22T13:20:06.498Z,13.70
2023-03-22T13:23:11.835Z,13.60
2023-03-22T13:26:16.136Z,15.00
2023-03-22T13:29:21.011Z,13.60
2023-03-22T13:32:30.832Z,13.60
2023-03-22T13:35:48.771Z,13.60
2023-03-22T13:38:56.732Z,13.50
2023-03-22T13:42:08.294Z,13.60
2023-03-22T13:45:33.391Z,13.80
2023-03-22T13:48:46.721Z,14.10
2023-03-22T13:51:49.260Z,13.60
2023-03-22T13:54:52.503Z,13.80
2023-03-22T13:57:59.164Z,13.80
2023-03-22T14:01:01.033Z,14.10
2023-03-22T14:04:09.389Z,15.30
2023-03-22T14:07:22.500Z,14.10
2023-03-22T14:10:37.001Z,14.20
2023-03-22T14:13:44.281Z,15.50
2023-03-22T14:16:48.605Z,13.80
2023-03-22T14:19:52.178Z,13.70
